Terminal Aerodrome Forecast
Issued by NWS Mt. Holly, NJ

Home | Current Version | Previous Version | Text Only | Print | Product List | Glossary On
Versions: 1 2 3 4 5 6 7 8 9 10 11 12 13 14 15 16 17 18 19 20 21 22 23 24 25
000
FTUS41 KPHI 231720
TAFACY
TAF
KACY 231720Z 2318/2418 07010KT P6SM SCT035
     FM232200 13006KT P6SM BKN200
     FM240500 VRB03KT P6SM OVC100
     FM241000 07006KT P6SM -SHRA OVC050
     FM241400 07010G18KT 6SM -SHRA SCT030 OVC050=

USA.gov is the U.S. government's official web portal to all federal, state and local government web resources and services.